sensor_id;sensor_type;location;lat;lon;timestamp;P1;durP1;ratioP1;P2;durP2;ratioP2
71867;SDS011;59738;48.324;14.230;2022-10-16T00:01:39;5.40;;;2.73;;
71867;SDS011;59738;48.324;14.230;2022-10-16T00:04:06;3.33;;;2.60;;
71867;SDS011;59738;48.324;14.230;2022-10-16T00:06:34;3.78;;;3.15;;
71867;SDS011;59738;48.324;14.230;2022-10-16T00:09:01;6.35;;;3.33;;
71867;SDS011;59738;48.324;14.230;2022-10-16T00:11:31;5.68;;;3.10;;
71867;SDS011;59738;48.324;14.230;2022-10-16T00:14:02;4.03;;;3.00;;
71867;SDS011;59738;48.324;14.230;2022-10-16T00:16:31;6.93;;;3.00;;
71867;SDS011;59738;48.324;14.230;2022-10-16T00:18:59;5.10;;;3.58;;
71867;SDS011;59738;48.324;14.230;2022-10-16T00:21:27;6.00;;;3.47;;
71867;SDS011;59738;48.324;14.230;2022-10-16T00:24:14;5.70;;;4.18;;
71867;SDS011;59738;48.324;14.230;2022-10-16T00:26:43;7.67;;;3.10;;
71867;SDS011;59738;48.324;14.230;2022-10-16T00:29:10;4.85;;;3.40;;
71867;SDS011;59738;48.324;14.230;2022-10-16T00:31:38;5.30;;;3.28;;
71867;SDS011;59738;48.324;14.230;2022-10-16T00:34:05;5.75;;;3.10;;
71867;SDS011;59738;48.324;14.230;2022-10-16T00:36:33;3.85;;;3.15;;
71867;SDS011;59738;48.324;14.230;2022-10-16T00:39:00;4.80;;;3.43;;
71867;SDS011;59738;48.324;14.230;2022-10-16T00:41:28;4.70;;;3.10;;
71867;SDS011;59738;48.324;14.230;2022-10-16T00:43:57;4.95;;;3.55;;
71867;SDS011;59738;48.324;14.230;2022-10-16T00:46:27;5.97;;;3.83;;
71867;SDS011;59738;48.324;14.230;2022-10-16T00:48:59;7.75;;;3.50;;
71867;SDS011;59738;48.324;14.230;2022-10-16T00:51:30;5.67;;;3.43;;
71867;SDS011;59738;48.324;14.230;2022-10-16T00:53:58;5.63;;;2.97;;
71867;SDS011;59738;48.324;14.230;2022-10-16T00:56:27;4.70;;;3.60;;
71867;SDS011;59738;48.324;14.230;2022-10-16T00:58:54;4.40;;;2.83;;
71867;SDS011;59738;48.324;14.230;2022-10-16T01:01:23;4.22;;;2.90;;
71867;SDS011;59738;48.324;14.230;2022-10-16T01:03:51;5.50;;;2.93;;
71867;SDS011;59738;48.324;14.230;2022-10-16T01:06:20;7.05;;;2.90;;
71867;SDS011;59738;48.324;14.230;2022-10-16T01:08:59;7.50;;;3.00;;
71867;SDS011;59738;48.324;14.230;2022-10-16T01:11:34;4.18;;;2.90;;
71867;SDS011;59738;48.324;14.230;2022-10-16T01:14:06;4.60;;;3.22;;
71867;SDS011;59738;48.324;14.230;2022-10-16T01:16:40;4.93;;;2.80;;
71867;SDS011;59738;48.324;14.230;2022-10-16T01:19:12;5.60;;;3.13;;
71867;SDS011;59738;48.324;14.230;2022-10-16T01:21:41;5.45;;;3.83;;
71867;SDS011;59738;48.324;14.230;2022-10-16T01:24:12;3.83;;;2.90;;
71867;SDS011;59738;48.324;14.230;2022-10-16T01:26:50;5.65;;;3.22;;
71867;SDS011;59738;48.324;14.230;2022-10-16T01:29:32;3.83;;;3.10;;
71867;SDS011;59738;48.324;14.230;2022-10-16T01:32:05;4.50;;;3.20;;
71867;SDS011;59738;48.324;14.230;2022-10-16T01:34:38;6.47;;;3.38;;
71867;SDS011;59738;48.324;14.230;2022-10-16T01:37:09;7.43;;;2.92;;
71867;SDS011;59738;48.324;14.230;2022-10-16T01:39:39;3.03;;;2.50;;
71867;SDS011;59738;48.324;14.230;2022-10-16T01:42:11;4.13;;;2.60;;
71867;SDS011;59738;48.324;14.230;2022-10-16T01:44:40;5.60;;;2.60;;
71867;SDS011;59738;48.324;14.230;2022-10-16T01:47:09;4.07;;;3.03;;
71867;SDS011;59738;48.324;14.230;2022-10-16T01:49:38;5.20;;;3.45;;
71867;SDS011;59738;48.324;14.230;2022-10-16T01:52:07;4.55;;;3.03;;
71867;SDS011;59738;48.324;14.230;2022-10-16T01:54:37;3.50;;;2.70;;
71867;SDS011;59738;48.324;14.230;2022-10-16T01:57:05;4.50;;;2.92;;
71867;SDS011;59738;48.324;14.230;2022-10-16T01:59:40;384.73;;;14.80;;
71867;SDS011;59738;48.324;14.230;2022-10-16T02:02:09;286.10;;;7.80;;
71867;SDS011;59738;48.324;14.230;2022-10-16T02:04:39;408.63;;;9.95;;
71867;SDS011;59738;48.324;14.230;2022-10-16T02:07:10;194.70;;;6.13;;
71867;SDS011;59738;48.324;14.230;2022-10-16T02:09:37;27.65;;;2.65;;
71867;SDS011;59738;48.324;14.230;2022-10-16T02:12:06;6.32;;;3.03;;
71867;SDS011;59738;48.324;14.230;2022-10-16T02:14:38;7.32;;;3.35;;
71867;SDS011;59738;48.324;14.230;2022-10-16T02:17:10;9.32;;;3.50;;
71867;SDS011;59738;48.324;14.230;2022-10-16T02:19:38;10.17;;;4.00;;
71867;SDS011;59738;48.324;14.230;2022-10-16T02:22:07;6.22;;;3.70;;
71867;SDS011;59738;48.324;14.230;2022-10-16T02:24:38;5.32;;;3.60;;
71867;SDS011;59738;48.324;14.230;2022-10-16T02:27:10;5.43;;;3.60;;
71867;SDS011;59738;48.324;14.230;2022-10-16T02:29:42;5.85;;;3.70;;
71867;SDS011;59738;48.324;14.230;2022-10-16T02:32:14;6.90;;;4.00;;
71867;SDS011;59738;48.324;14.230;2022-10-16T02:34:44;7.00;;;3.72;;
71867;SDS011;59738;48.324;14.230;2022-10-16T02:37:12;7.15;;;4.10;;
71867;SDS011;59738;48.324;14.230;2022-10-16T02:39:40;5.38;;;3.90;;
71867;SDS011;59738;48.324;14.230;2022-10-16T02:42:09;6.13;;;4.18;;
71867;SDS011;59738;48.324;14.230;2022-10-16T02:44:37;9.83;;;4.60;;
71867;SDS011;59738;48.324;14.230;2022-10-16T02:47:06;11.60;;;5.10;;
71867;SDS011;59738;48.324;14.230;2022-10-16T02:49:33;10.02;;;5.07;;
71867;SDS011;59738;48.324;14.230;2022-10-16T02:52:01;8.32;;;4.47;;
71867;SDS011;59738;48.324;14.230;2022-10-16T02:54:28;8.77;;;5.50;;
71867;SDS011;59738;48.324;14.230;2022-10-16T02:56:56;8.90;;;4.80;;
71867;SDS011;59738;48.324;14.230;2022-10-16T02:59:23;10.13;;;5.32;;
71867;SDS011;59738;48.324;14.230;2022-10-16T03:01:51;10.40;;;4.88;;
71867;SDS011;59738;48.324;14.230;2022-10-16T03:04:20;5.95;;;4.10;;
71867;SDS011;59738;48.324;14.230;2022-10-16T03:06:47;5.80;;;4.15;;
71867;SDS011;59738;48.324;14.230;2022-10-16T03:09:15;5.83;;;3.67;;
71867;SDS011;59738;48.324;14.230;2022-10-16T03:11:42;5.53;;;3.50;;
71867;SDS011;59738;48.324;14.230;2022-10-16T03:14:10;6.57;;;4.03;;
71867;SDS011;59738;48.324;14.230;2022-10-16T03:16:37;5.65;;;3.42;;
71867;SDS011;59738;48.324;14.230;2022-10-16T03:19:04;6.30;;;3.25;;
71867;SDS011;59738;48.324;14.230;2022-10-16T03:21:33;5.47;;;3.37;;
71867;SDS011;59738;48.324;14.230;2022-10-16T03:24:01;5.40;;;4.75;;
71867;SDS011;59738;48.324;14.230;2022-10-16T03:26:28;5.97;;;4.60;;
71867;SDS011;59738;48.324;14.230;2022-10-16T03:28:56;4.25;;;3.17;;
71867;SDS011;59738;48.324;14.230;2022-10-16T03:31:23;4.43;;;3.70;;
71867;SDS011;59738;48.324;14.230;2022-10-16T03:33:50;4.03;;;3.17;;
71867;SDS011;59738;48.324;14.230;2022-10-16T03:36:18;4.72;;;3.00;;
71867;SDS011;59738;48.324;14.230;2022-10-16T03:38:47;3.97;;;3.40;;
71867;SDS011;59738;48.324;14.230;2022-10-16T03:41:14;6.22;;;3.50;;
71867;SDS011;59738;48.324;14.230;2022-10-16T03:43:42;6.20;;;3.80;;
71867;SDS011;59738;48.324;14.230;2022-10-16T03:46:09;6.30;;;4.07;;
71867;SDS011;59738;48.324;14.230;2022-10-16T03:48:36;6.43;;;3.92;;
71867;SDS011;59738;48.324;14.230;2022-10-16T03:51:05;4.70;;;4.00;;
71867;SDS011;59738;48.324;14.230;2022-10-16T03:53:33;7.60;;;3.75;;
71867;SDS011;59738;48.324;14.230;2022-10-16T03:56:02;11.43;;;4.00;;
71867;SDS011;59738;48.324;14.230;2022-10-16T03:58:29;6.13;;;3.80;;
71867;SDS011;59738;48.324;14.230;2022-10-16T04:00:57;6.22;;;3.85;;
71867;SDS011;59738;48.324;14.230;2022-10-16T04:03:24;7.40;;;3.80;;
71867;SDS011;59738;48.324;14.230;2022-10-16T04:05:52;5.38;;;3.35;;
71867;SDS011;59738;48.324;14.230;2022-10-16T04:08:19;5.32;;;3.67;;
71867;SDS011;59738;48.324;14.230;2022-10-16T04:10:46;3.67;;;3.10;;
71867;SDS011;59738;48.324;14.230;2022-10-16T04:13:15;7.80;;;3.00;;
71867;SDS011;59738;48.324;14.230;2022-10-16T04:15:44;4.90;;;3.47;;
71867;SDS011;59738;48.324;14.230;2022-10-16T04:18:12;5.05;;;3.35;;
71867;SDS011;59738;48.324;14.230;2022-10-16T04:20:40;4.72;;;2.90;;
71867;SDS011;59738;48.324;14.230;2022-10-16T04:23:07;3.83;;;2.97;;
71867;SDS011;59738;48.324;14.230;2022-10-16T04:25:35;5.45;;;2.80;;
71867;SDS011;59738;48.324;14.230;2022-10-16T04:28:02;11.98;;;3.10;;
71867;SDS011;59738;48.324;14.230;2022-10-16T04:30:31;7.90;;;2.70;;
71867;SDS011;59738;48.324;14.230;2022-10-16T04:32:59;3.20;;;2.40;;
71867;SDS011;59738;48.324;14.230;2022-10-16T04:35:26;4.40;;;2.43;;
71867;SDS011;59738;48.324;14.230;2022-10-16T04:37:54;4.85;;;3.30;;
71867;SDS011;59738;48.324;14.230;2022-10-16T04:40:24;4.60;;;3.30;;
71867;SDS011;59738;48.324;14.230;2022-10-16T04:42:51;4.70;;;3.17;;
71867;SDS011;59738;48.324;14.230;2022-10-16T04:45:19;4.07;;;3.40;;
71867;SDS011;59738;48.324;14.230;2022-10-16T04:47:47;3.80;;;2.97;;
71867;SDS011;59738;48.324;14.230;2022-10-16T04:50:15;6.97;;;3.30;;
71867;SDS011;59738;48.324;14.230;2022-10-16T04:53:00;6.90;;;3.30;;
71867;SDS011;59738;48.324;14.230;2022-10-16T04:55:28;4.97;;;2.92;;
71867;SDS011;59738;48.324;14.230;2022-10-16T04:57:55;5.32;;;3.17;;
71867;SDS011;59738;48.324;14.230;2022-10-16T05:00:22;3.87;;;2.90;;
71867;SDS011;59738;48.324;14.230;2022-10-16T05:02:51;4.88;;;2.78;;
71867;SDS011;59738;48.324;14.230;2022-10-16T05:05:19;4.78;;;3.08;;
71867;SDS011;59738;48.324;14.230;2022-10-16T05:07:46;3.92;;;3.28;;
71867;SDS011;59738;48.324;14.230;2022-10-16T05:10:15;4.05;;;2.53;;
71867;SDS011;59738;48.324;14.230;2022-10-16T05:12:43;362.00;;;10.87;;
71867;SDS011;59738;48.324;14.230;2022-10-16T05:15:10;310.60;;;7.30;;
71867;SDS011;59738;48.324;14.230;2022-10-16T05:17:38;246.13;;;5.97;;
71867;SDS011;59738;48.324;14.230;2022-10-16T05:20:07;156.63;;;4.45;;
71867;SDS011;59738;48.324;14.230;2022-10-16T05:22:34;84.40;;;4.28;;
71867;SDS011;59738;48.324;14.230;2022-10-16T05:25:02;8.47;;;2.70;;
71867;SDS011;59738;48.324;14.230;2022-10-16T05:27:30;3.75;;;2.90;;
71867;SDS011;59738;48.324;14.230;2022-10-16T05:29:57;8.85;;;3.15;;
71867;SDS011;59738;48.324;14.230;2022-10-16T05:32:25;2.75;;;2.13;;
71867;SDS011;59738;48.324;14.230;2022-10-16T05:34:52;3.88;;;2.60;;
71867;SDS011;59738;48.324;14.230;2022-10-16T05:37:21;4.03;;;3.10;;
71867;SDS011;59738;48.324;14.230;2022-10-16T05:39:48;5.30;;;2.90;;
71867;SDS011;59738;48.324;14.230;2022-10-16T05:42:16;6.78;;;3.00;;
71867;SDS011;59738;48.324;14.230;2022-10-16T05:44:43;3.70;;;2.92;;
71867;SDS011;59738;48.324;14.230;2022-10-16T05:47:12;4.18;;;2.55;;
71867;SDS011;59738;48.324;14.230;2022-10-16T05:49:40;5.00;;;3.10;;
71867;SDS011;59738;48.324;14.230;2022-10-16T05:52:07;3.70;;;2.80;;
71867;SDS011;59738;48.324;14.230;2022-10-16T05:54:36;4.65;;;2.90;;
71867;SDS011;59738;48.324;14.230;2022-10-16T05:57:03;3.60;;;2.85;;
71867;SDS011;59738;48.324;14.230;2022-10-16T05:59:31;6.57;;;2.50;;
71867;SDS011;59738;48.324;14.230;2022-10-16T06:01:59;4.17;;;2.30;;
71867;SDS011;59738;48.324;14.230;2022-10-16T06:04:26;5.72;;;2.03;;
71867;SDS011;59738;48.324;14.230;2022-10-16T06:06:53;8.50;;;2.60;;
71867;SDS011;59738;48.324;14.230;2022-10-16T06:09:21;2.45;;;2.13;;
71867;SDS011;59738;48.324;14.230;2022-10-16T06:11:50;4.43;;;2.90;;
71867;SDS011;59738;48.324;14.230;2022-10-16T06:14:17;6.67;;;3.97;;
71867;SDS011;59738;48.324;14.230;2022-10-16T06:16:45;7.03;;;4.13;;
71867;SDS011;59738;48.324;14.230;2022-10-16T06:19:12;7.22;;;3.92;;
71867;SDS011;59738;48.324;14.230;2022-10-16T06:21:41;6.18;;;3.80;;
71867;SDS011;59738;48.324;14.230;2022-10-16T06:24:09;6.38;;;4.43;;
71867;SDS011;59738;48.324;14.230;2022-10-16T06:26:36;8.57;;;3.90;;
71867;SDS011;59738;48.324;14.230;2022-10-16T06:29:05;4.43;;;3.00;;
71867;SDS011;59738;48.324;14.230;2022-10-16T06:31:33;2.63;;;2.42;;
71867;SDS011;59738;48.324;14.230;2022-10-16T06:34:00;3.55;;;2.30;;
71867;SDS011;59738;48.324;14.230;2022-10-16T06:36:30;3.30;;;2.20;;
71867;SDS011;59738;48.324;14.230;2022-10-16T06:38:58;2.60;;;2.27;;
71867;SDS011;59738;48.324;14.230;2022-10-16T06:41:25;2.22;;;2.03;;
71867;SDS011;59738;48.324;14.230;2022-10-16T06:43:53;3.13;;;2.13;;
71867;SDS011;59738;48.324;14.230;2022-10-16T06:46:22;4.45;;;1.70;;
71867;SDS011;59738;48.324;14.230;2022-10-16T06:48:51;17.30;;;2.67;;
71867;SDS011;59738;48.324;14.230;2022-10-16T06:51:19;3.73;;;2.13;;
71867;SDS011;59738;48.324;14.230;2022-10-16T06:53:47;4.00;;;2.35;;
71867;SDS011;59738;48.324;14.230;2022-10-16T06:56:17;10.27;;;2.90;;
71867;SDS011;59738;48.324;14.230;2022-10-16T06:58:47;3.35;;;1.90;;
71867;SDS011;59738;48.324;14.230;2022-10-16T07:01:17;4.53;;;1.90;;
71867;SDS011;59738;48.324;14.230;2022-10-16T07:03:48;4.70;;;2.40;;
71867;SDS011;59738;48.324;14.230;2022-10-16T07:06:17;4.15;;;1.85;;
71867;SDS011;59738;48.324;14.230;2022-10-16T07:08:46;3.83;;;1.90;;
71867;SDS011;59738;48.324;14.230;2022-10-16T07:11:14;2.78;;;2.30;;
71867;SDS011;59738;48.324;14.230;2022-10-16T07:13:44;5.60;;;3.20;;
71867;SDS011;59738;48.324;14.230;2022-10-16T07:16:13;5.30;;;2.57;;
71867;SDS011;59738;48.324;14.230;2022-10-16T07:18:42;6.93;;;2.50;;
71867;SDS011;59738;48.324;14.230;2022-10-16T07:21:13;4.68;;;2.28;;
71867;SDS011;59738;48.324;14.230;2022-10-16T07:23:41;4.65;;;2.30;;
71867;SDS011;59738;48.324;14.230;2022-10-16T07:26:09;3.30;;;2.20;;
71867;SDS011;59738;48.324;14.230;2022-10-16T07:28:37;2.10;;;1.90;;
71867;SDS011;59738;48.324;14.230;2022-10-16T07:31:06;18.75;;;2.33;;
71867;SDS011;59738;48.324;14.230;2022-10-16T07:33:37;3.35;;;2.80;;
71867;SDS011;59738;48.324;14.230;2022-10-16T07:36:05;15.18;;;2.60;;
71867;SDS011;59738;48.324;14.230;2022-10-16T07:38:34;10.15;;;2.78;;
71867;SDS011;59738;48.324;14.230;2022-10-16T07:41:02;5.97;;;2.80;;
71867;SDS011;59738;48.324;14.230;2022-10-16T07:43:31;15.02;;;2.55;;
71867;SDS011;59738;48.324;14.230;2022-10-16T07:45:59;5.35;;;2.40;;
71867;SDS011;59738;48.324;14.230;2022-10-16T07:48:28;4.32;;;2.85;;
71867;SDS011;59738;48.324;14.230;2022-10-16T07:50:56;9.25;;;2.90;;
71867;SDS011;59738;48.324;14.230;2022-10-16T07:53:24;4.93;;;2.57;;
71867;SDS011;59738;48.324;14.230;2022-10-16T07:55:56;6.10;;;2.78;;
71867;SDS011;59738;48.324;14.230;2022-10-16T07:58:24;4.65;;;2.80;;
71867;SDS011;59738;48.324;14.230;2022-10-16T08:00:51;4.20;;;2.70;;
71867;SDS011;59738;48.324;14.230;2022-10-16T08:03:19;6.13;;;2.90;;
71867;SDS011;59738;48.324;14.230;2022-10-16T08:05:46;3.77;;;2.80;;
71867;SDS011;59738;48.324;14.230;2022-10-16T08:08:14;3.33;;;2.60;;
71867;SDS011;59738;48.324;14.230;2022-10-16T08:10:42;8.00;;;2.67;;
71867;SDS011;59738;48.324;14.230;2022-10-16T08:13:11;4.13;;;2.97;;
71867;SDS011;59738;48.324;14.230;2022-10-16T08:15:40;3.83;;;2.92;;
71867;SDS011;59738;48.324;14.230;2022-10-16T08:18:09;6.23;;;3.00;;
71867;SDS011;59738;48.324;14.230;2022-10-16T08:20:36;5.30;;;2.70;;
71867;SDS011;59738;48.324;14.230;2022-10-16T08:23:04;10.68;;;3.58;;
71867;SDS011;59738;48.324;14.230;2022-10-16T08:25:34;7.75;;;3.50;;
71867;SDS011;59738;48.324;14.230;2022-10-16T08:28:03;5.78;;;3.80;;
71867;SDS011;59738;48.324;14.230;2022-10-16T08:30:32;8.13;;;3.53;;
71867;SDS011;59738;48.324;14.230;2022-10-16T08:32:59;7.45;;;4.13;;
71867;SDS011;59738;48.324;14.230;2022-10-16T08:35:27;14.35;;;5.72;;
71867;SDS011;59738;48.324;14.230;2022-10-16T08:37:54;13.80;;;6.93;;
71867;SDS011;59738;48.324;14.230;2022-10-16T08:40:23;15.90;;;8.15;;
71867;SDS011;59738;48.324;14.230;2022-10-16T08:42:59;21.33;;;8.80;;
71867;SDS011;59738;48.324;14.230;2022-10-16T08:45:40;19.40;;;9.02;;
71867;SDS011;59738;48.324;14.230;2022-10-16T08:48:14;18.88;;;9.02;;
71867;SDS011;59738;48.324;14.230;2022-10-16T08:50:45;21.67;;;9.10;;
71867;SDS011;59738;48.324;14.230;2022-10-16T08:53:14;22.27;;;10.60;;
71867;SDS011;59738;48.324;14.230;2022-10-16T08:55:45;23.23;;;10.87;;
71867;SDS011;59738;48.324;14.230;2022-10-16T08:58:15;28.80;;;10.85;;
71867;SDS011;59738;48.324;14.230;2022-10-16T09:00:46;25.52;;;11.75;;
71867;SDS011;59738;48.324;14.230;2022-10-16T09:03:17;23.80;;;11.43;;
71867;SDS011;59738;48.324;14.230;2022-10-16T09:08:47;29.20;;;11.60;;
71867;SDS011;59738;48.324;14.230;2022-10-16T09:11:24;26.98;;;10.75;;
71867;SDS011;59738;48.324;14.230;2022-10-16T09:13:58;30.30;;;13.30;;
71867;SDS011;59738;48.324;14.230;2022-10-16T09:16:30;26.15;;;12.85;;
71867;SDS011;59738;48.324;14.230;2022-10-16T09:19:02;28.73;;;12.40;;
71867;SDS011;59738;48.324;14.230;2022-10-16T09:21:34;34.87;;;13.60;;
71867;SDS011;59738;48.324;14.230;2022-10-16T09:24:07;29.80;;;12.45;;
71867;SDS011;59738;48.324;14.230;2022-10-16T09:26:37;25.35;;;11.88;;
71867;SDS011;59738;48.324;14.230;2022-10-16T09:29:04;27.35;;;12.23;;
71867;SDS011;59738;48.324;14.230;2022-10-16T09:31:35;23.10;;;12.32;;
71867;SDS011;59738;48.324;14.230;2022-10-16T09:34:03;31.30;;;13.97;;
71867;SDS011;59738;48.324;14.230;2022-10-16T09:36:33;30.23;;;16.15;;
71867;SDS011;59738;48.324;14.230;2022-10-16T09:39:04;27.48;;;14.23;;
71867;SDS011;59738;48.324;14.230;2022-10-16T09:41:34;28.08;;;13.52;;
71867;SDS011;59738;48.324;14.230;2022-10-16T09:44:02;29.33;;;13.68;;
71867;SDS011;59738;48.324;14.230;2022-10-16T09:46:32;26.53;;;12.37;;
71867;SDS011;59738;48.324;14.230;2022-10-16T09:49:02;28.85;;;12.50;;
71867;SDS011;59738;48.324;14.230;2022-10-16T09:51:32;27.33;;;13.25;;
71867;SDS011;59738;48.324;14.230;2022-10-16T09:54:01;28.52;;;11.93;;
71867;SDS011;59738;48.324;14.230;2022-10-16T09:56:38;29.23;;;13.02;;
71867;SDS011;59738;48.324;14.230;2022-10-16T09:59:08;25.53;;;12.53;;
71867;SDS011;59738;48.324;14.230;2022-10-16T10:01:40;24.73;;;11.32;;
71867;SDS011;59738;48.324;14.230;2022-10-16T10:04:08;25.83;;;11.15;;
71867;SDS011;59738;48.324;14.230;2022-10-16T10:06:37;22.02;;;10.32;;
71867;SDS011;59738;48.324;14.230;2022-10-16T10:09:19;27.70;;;11.27;;
71867;SDS011;59738;48.324;14.230;2022-10-16T10:11:48;22.40;;;10.37;;
71867;SDS011;59738;48.324;14.230;2022-10-16T10:17:09;21.10;;;9.90;;
71867;SDS011;59738;48.324;14.230;2022-10-16T10:19:39;18.70;;;8.98;;
71867;SDS011;59738;48.324;14.230;2022-10-16T10:22:18;23.95;;;10.13;;
71867;SDS011;59738;48.324;14.230;2022-10-16T10:27:41;16.98;;;9.05;;
71867;SDS011;59738;48.324;14.230;2022-10-16T10:30:18;19.80;;;9.68;;
71867;SDS011;59738;48.324;14.230;2022-10-16T10:32:51;17.15;;;7.90;;
71867;SDS011;59738;48.324;14.230;2022-10-16T10:35:38;18.20;;;8.38;;
71867;SDS011;59738;48.324;14.230;2022-10-16T10:38:12;20.43;;;7.50;;
71867;SDS011;59738;48.324;14.230;2022-10-16T10:40:49;17.35;;;8.38;;
71867;SDS011;59738;48.324;14.230;2022-10-16T10:43:25;16.10;;;7.30;;
71867;SDS011;59738;48.324;14.230;2022-10-16T10:46:00;21.80;;;6.88;;
71867;SDS011;59738;48.324;14.230;2022-10-16T10:51:22;11.73;;;5.80;;
71867;SDS011;59738;48.324;14.230;2022-10-16T10:53:55;14.27;;;6.10;;
71867;SDS011;59738;48.324;14.230;2022-10-16T10:56:37;12.55;;;6.38;;
71867;SDS011;59738;48.324;14.230;2022-10-16T10:59:16;13.02;;;6.10;;
71867;SDS011;59738;48.324;14.230;2022-10-16T11:01:50;10.43;;;5.68;;
71867;SDS011;59738;48.324;14.230;2022-10-16T11:04:32;13.17;;;5.50;;
71867;SDS011;59738;48.324;14.230;2022-10-16T11:07:04;9.40;;;5.03;;
71867;SDS011;59738;48.324;14.230;2022-10-16T11:09:34;9.27;;;4.70;;
71867;SDS011;59738;48.324;14.230;2022-10-16T11:12:05;12.70;;;4.47;;
71867;SDS011;59738;48.324;14.230;2022-10-16T11:14:36;14.20;;;4.82;;
71867;SDS011;59738;48.324;14.230;2022-10-16T11:17:07;10.20;;;4.20;;
71867;SDS011;59738;48.324;14.230;2022-10-16T11:19:41;8.23;;;3.97;;
71867;SDS011;59738;48.324;14.230;2022-10-16T11:22:13;13.25;;;4.40;;
71867;SDS011;59738;48.324;14.230;2022-10-16T11:24:45;12.95;;;4.35;;
71867;SDS011;59738;48.324;14.230;2022-10-16T11:27:16;13.02;;;4.45;;
71867;SDS011;59738;48.324;14.230;2022-10-16T11:29:47;10.93;;;4.00;;
71867;SDS011;59738;48.324;14.230;2022-10-16T11:32:19;11.13;;;4.47;;
71867;SDS011;59738;48.324;14.230;2022-10-16T11:34:51;7.43;;;3.90;;
71867;SDS011;59738;48.324;14.230;2022-10-16T11:37:23;9.85;;;3.88;;
71867;SDS011;59738;48.324;14.230;2022-10-16T11:39:54;8.25;;;4.00;;
71867;SDS011;59738;48.324;14.230;2022-10-16T11:42:27;8.43;;;3.90;;
71867;SDS011;59738;48.324;14.230;2022-10-16T11:44:57;12.23;;;4.53;;
71867;SDS011;59738;48.324;14.230;2022-10-16T11:47:31;6.78;;;3.80;;
71867;SDS011;59738;48.324;14.230;2022-10-16T11:50:06;7.10;;;3.10;;
71867;SDS011;59738;48.324;14.230;2022-10-16T11:52:42;6.30;;;3.00;;
71867;SDS011;59738;48.324;14.230;2022-10-16T11:55:14;6.07;;;2.77;;
71867;SDS011;59738;48.324;14.230;2022-10-16T11:57:44;7.43;;;2.80;;
71867;SDS011;59738;48.324;14.230;2022-10-16T12:00:16;5.45;;;3.25;;
71867;SDS011;59738;48.324;14.230;2022-10-16T12:02:50;3.78;;;2.55;;
71867;SDS011;59738;48.324;14.230;2022-10-16T12:05:27;5.85;;;2.53;;
71867;SDS011;59738;48.324;14.230;2022-10-16T12:08:02;5.67;;;2.87;;
71867;SDS011;59738;48.324;14.230;2022-10-16T12:10:35;7.55;;;2.63;;
71867;SDS011;59738;48.324;14.230;2022-10-16T12:13:04;4.22;;;2.42;;
71867;SDS011;59738;48.324;14.230;2022-10-16T12:15:32;4.35;;;2.22;;
71867;SDS011;59738;48.324;14.230;2022-10-16T12:18:00;3.78;;;2.35;;
71867;SDS011;59738;48.324;14.230;2022-10-16T12:20:30;3.33;;;2.03;;
71867;SDS011;59738;48.324;14.230;2022-10-16T12:22:59;4.20;;;2.10;;
71867;SDS011;59738;48.324;14.230;2022-10-16T12:25:29;4.80;;;2.40;;
71867;SDS011;59738;48.324;14.230;2022-10-16T12:27:58;5.68;;;2.10;;
71867;SDS011;59738;48.324;14.230;2022-10-16T12:30:28;4.47;;;2.50;;
71867;SDS011;59738;48.324;14.230;2022-10-16T12:32:57;8.10;;;3.07;;
71867;SDS011;59738;48.324;14.230;2022-10-16T12:35:26;5.75;;;2.20;;
71867;SDS011;59738;48.324;14.230;2022-10-16T12:38:05;4.80;;;2.78;;
71867;SDS011;59738;48.324;14.230;2022-10-16T12:40:34;5.32;;;2.85;;
71867;SDS011;59738;48.324;14.230;2022-10-16T12:43:34;9.35;;;2.25;;
71867;SDS011;59738;48.324;14.230;2022-10-16T12:46:04;7.17;;;2.70;;
71867;SDS011;59738;48.324;14.230;2022-10-16T12:48:47;5.30;;;2.55;;
71867;SDS011;59738;48.324;14.230;2022-10-16T12:51:22;9.38;;;2.83;;
71867;SDS011;59738;48.324;14.230;2022-10-16T12:53:59;7.28;;;2.78;;
71867;SDS011;59738;48.324;14.230;2022-10-16T12:56:29;5.70;;;2.40;;
71867;SDS011;59738;48.324;14.230;2022-10-16T12:59:04;5.50;;;2.07;;
71867;SDS011;59738;48.324;14.230;2022-10-16T13:01:41;6.50;;;2.20;;
71867;SDS011;59738;48.324;14.230;2022-10-16T13:07:32;3.55;;;2.30;;
71867;SDS011;59738;48.324;14.230;2022-10-16T13:10:11;5.30;;;1.98;;
71867;SDS011;59738;48.324;14.230;2022-10-16T13:12:56;3.20;;;1.70;;
71867;SDS011;59738;48.324;14.230;2022-10-16T13:15:46;5.32;;;2.33;;
71867;SDS011;59738;48.324;14.230;2022-10-16T13:18:26;3.80;;;2.33;;
71867;SDS011;59738;48.324;14.230;2022-10-16T13:21:01;3.45;;;2.30;;
71867;SDS011;59738;48.324;14.230;2022-10-16T13:23:37;3.72;;;2.22;;
71867;SDS011;59738;48.324;14.230;2022-10-16T13:26:13;11.33;;;2.40;;
71867;SDS011;59738;48.324;14.230;2022-10-16T13:28:46;5.97;;;2.60;;
71867;SDS011;59738;48.324;14.230;2022-10-16T13:31:15;2.60;;;1.95;;
71867;SDS011;59738;48.324;14.230;2022-10-16T13:33:46;5.88;;;2.00;;
71867;SDS011;59738;48.324;14.230;2022-10-16T13:36:19;7.25;;;2.47;;
71867;SDS011;59738;48.324;14.230;2022-10-16T13:38:48;5.27;;;2.77;;
71867;SDS011;59738;48.324;14.230;2022-10-16T13:41:17;11.43;;;2.97;;
71867;SDS011;59738;48.324;14.230;2022-10-16T13:43:46;4.88;;;3.20;;
71867;SDS011;59738;48.324;14.230;2022-10-16T13:46:16;4.60;;;2.60;;
71867;SDS011;59738;48.324;14.230;2022-10-16T13:48:55;7.40;;;2.63;;
71867;SDS011;59738;48.324;14.230;2022-10-16T13:51:24;4.70;;;2.60;;
71867;SDS011;59738;48.324;14.230;2022-10-16T13:53:52;4.88;;;2.30;;
71867;SDS011;59738;48.324;14.230;2022-10-16T13:56:21;5.32;;;2.60;;
71867;SDS011;59738;48.324;14.230;2022-10-16T13:58:58;5.40;;;2.30;;
71867;SDS011;59738;48.324;14.230;2022-10-16T14:01:26;5.15;;;2.70;;
71867;SDS011;59738;48.324;14.230;2022-10-16T14:04:00;6.70;;;2.90;;
71867;SDS011;59738;48.324;14.230;2022-10-16T14:06:28;7.60;;;2.83;;
71867;SDS011;59738;48.324;14.230;2022-10-16T14:08:58;5.20;;;2.40;;
71867;SDS011;59738;48.324;14.230;2022-10-16T14:11:28;5.18;;;2.33;;
71867;SDS011;59738;48.324;14.230;2022-10-16T14:13:56;5.40;;;2.40;;
71867;SDS011;59738;48.324;14.230;2022-10-16T14:16:25;7.40;;;2.10;;
71867;SDS011;59738;48.324;14.230;2022-10-16T14:18:56;4.10;;;2.22;;
71867;SDS011;59738;48.324;14.230;2022-10-16T14:21:24;8.43;;;2.55;;
71867;SDS011;59738;48.324;14.230;2022-10-16T14:23:52;8.32;;;2.60;;
71867;SDS011;59738;48.324;14.230;2022-10-16T14:26:22;5.03;;;2.25;;
71867;SDS011;59738;48.324;14.230;2022-10-16T14:29:03;6.93;;;2.13;;
71867;SDS011;59738;48.324;14.230;2022-10-16T14:31:37;5.63;;;2.10;;
71867;SDS011;59738;48.324;14.230;2022-10-16T14:36:56;6.20;;;2.17;;
71867;SDS011;59738;48.324;14.230;2022-10-16T14:39:23;3.20;;;1.98;;
71867;SDS011;59738;48.324;14.230;2022-10-16T14:41:52;4.93;;;2.00;;
71867;SDS011;59738;48.324;14.230;2022-10-16T14:44:25;3.42;;;2.00;;
71867;SDS011;59738;48.324;14.230;2022-10-16T14:46:55;4.72;;;2.38;;
71867;SDS011;59738;48.324;14.230;2022-10-16T14:49:22;4.78;;;1.80;;
71867;SDS011;59738;48.324;14.230;2022-10-16T14:51:50;4.38;;;1.60;;
71867;SDS011;59738;48.324;14.230;2022-10-16T14:54:18;5.57;;;1.70;;
71867;SDS011;59738;48.324;14.230;2022-10-16T14:56:47;2.55;;;1.90;;
71867;SDS011;59738;48.324;14.230;2022-10-16T14:59:17;6.47;;;1.75;;
71867;SDS011;59738;48.324;14.230;2022-10-16T15:01:47;6.75;;;1.80;;
71867;SDS011;59738;48.324;14.230;2022-10-16T15:04:15;2.88;;;1.73;;
71867;SDS011;59738;48.324;14.230;2022-10-16T15:06:43;3.33;;;1.63;;